sensor_id;sensor_type;location;lat;lon;timestamp;P1;durP1;ratioP1;P2;durP2;ratioP2
3637;SDS011;1835;50.068;8.154;2023-03-01T00:01:23;9.80;;;4.23;;
3637;SDS011;1835;50.068;8.154;2023-03-01T00:03:54;7.27;;;3.90;;
3637;SDS011;1835;50.068;8.154;2023-03-01T00:06:23;6.03;;;4.20;;
3637;SDS011;1835;50.068;8.154;2023-03-01T00:08:53;7.30;;;3.70;;
3637;SDS011;1835;50.068;8.154;2023-03-01T00:11:22;13.87;;;4.50;;
3637;SDS011;1835;50.068;8.154;2023-03-01T00:13:55;8.67;;;4.87;;
3637;SDS011;1835;50.068;8.154;2023-03-01T00:16:27;5.63;;;3.93;;
3637;SDS011;1835;50.068;8.154;2023-03-01T00:18:57;7.37;;;4.37;;
3637;SDS011;1835;50.068;8.154;2023-03-01T00:21:26;9.00;;;4.33;;
3637;SDS011;1835;50.068;8.154;2023-03-01T00:23:54;8.47;;;4.30;;
3637;SDS011;1835;50.068;8.154;2023-03-01T00:26:24;11.00;;;4.90;;
3637;SDS011;1835;50.068;8.154;2023-03-01T00:28:56;7.73;;;4.53;;
3637;SDS011;1835;50.068;8.154;2023-03-01T00:31:26;9.80;;;5.37;;
3637;SDS011;1835;50.068;8.154;2023-03-01T00:33:57;7.70;;;4.33;;
3637;SDS011;1835;50.068;8.154;2023-03-01T00:36:27;8.23;;;5.00;;
3637;SDS011;1835;50.068;8.154;2023-03-01T00:38:57;6.93;;;4.40;;
3637;SDS011;1835;50.068;8.154;2023-03-01T00:41:25;10.33;;;5.67;;
3637;SDS011;1835;50.068;8.154;2023-03-01T00:43:55;9.40;;;5.10;;
3637;SDS011;1835;50.068;8.154;2023-03-01T00:46:24;8.20;;;5.07;;
3637;SDS011;1835;50.068;8.154;2023-03-01T00:48:54;11.83;;;6.53;;
3637;SDS011;1835;50.068;8.154;2023-03-01T00:51:23;14.43;;;5.60;;
3637;SDS011;1835;50.068;8.154;2023-03-01T00:53:54;7.63;;;4.20;;
3637;SDS011;1835;50.068;8.154;2023-03-01T00:56:24;7.67;;;4.93;;
3637;SDS011;1835;50.068;8.154;2023-03-01T00:58:53;8.13;;;4.50;;
3637;SDS011;1835;50.068;8.154;2023-03-01T01:01:24;12.80;;;6.83;;
3637;SDS011;1835;50.068;8.154;2023-03-01T01:03:57;7.23;;;5.00;;
3637;SDS011;1835;50.068;8.154;2023-03-01T01:06:28;8.00;;;4.50;;
3637;SDS011;1835;50.068;8.154;2023-03-01T01:08:59;8.87;;;4.37;;
3637;SDS011;1835;50.068;8.154;2023-03-01T01:11:29;6.57;;;4.70;;
3637;SDS011;1835;50.068;8.154;2023-03-01T01:13:59;8.17;;;5.10;;
3637;SDS011;1835;50.068;8.154;2023-03-01T01:16:27;10.63;;;5.83;;
3637;SDS011;1835;50.068;8.154;2023-03-01T01:18:56;6.83;;;5.37;;
3637;SDS011;1835;50.068;8.154;2023-03-01T01:21:25;6.40;;;4.50;;
3637;SDS011;1835;50.068;8.154;2023-03-01T01:23:54;9.33;;;5.43;;
3637;SDS011;1835;50.068;8.154;2023-03-01T01:26:23;5.23;;;3.83;;
3637;SDS011;1835;50.068;8.154;2023-03-01T01:28:54;16.00;;;4.90;;
3637;SDS011;1835;50.068;8.154;2023-03-01T01:31:26;9.63;;;5.03;;
3637;SDS011;1835;50.068;8.154;2023-03-01T01:33:56;8.37;;;4.43;;
3637;SDS011;1835;50.068;8.154;2023-03-01T01:36:26;8.70;;;5.60;;
3637;SDS011;1835;50.068;8.154;2023-03-01T01:38:55;8.63;;;5.20;;
3637;SDS011;1835;50.068;8.154;2023-03-01T01:41:24;7.83;;;4.73;;
3637;SDS011;1835;50.068;8.154;2023-03-01T01:44:11;9.67;;;4.57;;
3637;SDS011;1835;50.068;8.154;2023-03-01T01:46:44;7.90;;;4.40;;
3637;SDS011;1835;50.068;8.154;2023-03-01T01:49:17;9.40;;;5.03;;
3637;SDS011;1835;50.068;8.154;2023-03-01T01:51:55;9.37;;;4.90;;
3637;SDS011;1835;50.068;8.154;2023-03-01T01:54:30;6.37;;;4.40;;
3637;SDS011;1835;50.068;8.154;2023-03-01T01:57:06;8.30;;;5.03;;
3637;SDS011;1835;50.068;8.154;2023-03-01T01:59:38;9.20;;;5.67;;
3637;SDS011;1835;50.068;8.154;2023-03-01T02:02:12;10.27;;;5.23;;
3637;SDS011;1835;50.068;8.154;2023-03-01T02:04:41;11.80;;;5.53;;
3637;SDS011;1835;50.068;8.154;2023-03-01T02:07:10;10.90;;;5.10;;
3637;SDS011;1835;50.068;8.154;2023-03-01T02:09:44;9.53;;;5.80;;
3637;SDS011;1835;50.068;8.154;2023-03-01T02:12:14;9.73;;;4.67;;
3637;SDS011;1835;50.068;8.154;2023-03-01T02:14:47;9.53;;;5.50;;
3637;SDS011;1835;50.068;8.154;2023-03-01T02:17:16;9.03;;;5.10;;
3637;SDS011;1835;50.068;8.154;2023-03-01T02:19:49;9.70;;;5.33;;
3637;SDS011;1835;50.068;8.154;2023-03-01T02:22:33;10.23;;;5.37;;
3637;SDS011;1835;50.068;8.154;2023-03-01T02:25:07;14.03;;;5.87;;
3637;SDS011;1835;50.068;8.154;2023-03-01T02:27:51;8.77;;;5.23;;
3637;SDS011;1835;50.068;8.154;2023-03-01T02:30:26;6.77;;;5.10;;
3637;SDS011;1835;50.068;8.154;2023-03-01T02:32:56;11.27;;;5.20;;
3637;SDS011;1835;50.068;8.154;2023-03-01T02:35:29;10.70;;;5.90;;
3637;SDS011;1835;50.068;8.154;2023-03-01T02:38:01;9.90;;;5.00;;
3637;SDS011;1835;50.068;8.154;2023-03-01T02:40:30;16.63;;;6.33;;
3637;SDS011;1835;50.068;8.154;2023-03-01T02:43:01;8.57;;;5.60;;
3637;SDS011;1835;50.068;8.154;2023-03-01T02:45:35;13.43;;;6.33;;
3637;SDS011;1835;50.068;8.154;2023-03-01T02:48:03;10.40;;;5.50;;
3637;SDS011;1835;50.068;8.154;2023-03-01T02:50:43;13.37;;;5.40;;
3637;SDS011;1835;50.068;8.154;2023-03-01T02:53:25;14.57;;;6.90;;
3637;SDS011;1835;50.068;8.154;2023-03-01T02:56:03;9.40;;;5.70;;
3637;SDS011;1835;50.068;8.154;2023-03-01T02:58:31;10.70;;;5.50;;
3637;SDS011;1835;50.068;8.154;2023-03-01T03:01:08;9.37;;;6.00;;
3637;SDS011;1835;50.068;8.154;2023-03-01T03:03:36;11.43;;;6.40;;
3637;SDS011;1835;50.068;8.154;2023-03-01T03:06:04;11.10;;;7.60;;
3637;SDS011;1835;50.068;8.154;2023-03-01T03:08:32;14.63;;;5.83;;
3637;SDS011;1835;50.068;8.154;2023-03-01T03:11:01;14.60;;;7.17;;
3637;SDS011;1835;50.068;8.154;2023-03-01T03:13:29;9.53;;;5.17;;
3637;SDS011;1835;50.068;8.154;2023-03-01T03:15:58;10.43;;;5.83;;
3637;SDS011;1835;50.068;8.154;2023-03-01T03:18:27;10.47;;;6.00;;
3637;SDS011;1835;50.068;8.154;2023-03-01T03:20:56;6.90;;;5.60;;
3637;SDS011;1835;50.068;8.154;2023-03-01T03:23:25;16.17;;;5.73;;
3637;SDS011;1835;50.068;8.154;2023-03-01T03:25:53;9.33;;;5.83;;
3637;SDS011;1835;50.068;8.154;2023-03-01T03:28:21;9.63;;;5.87;;
3637;SDS011;1835;50.068;8.154;2023-03-01T03:30:50;11.67;;;6.40;;
3637;SDS011;1835;50.068;8.154;2023-03-01T03:33:18;16.60;;;6.00;;
3637;SDS011;1835;50.068;8.154;2023-03-01T03:35:49;12.53;;;6.90;;
3637;SDS011;1835;50.068;8.154;2023-03-01T03:38:18;14.27;;;7.13;;
3637;SDS011;1835;50.068;8.154;2023-03-01T03:40:48;14.47;;;7.53;;
3637;SDS011;1835;50.068;8.154;2023-03-01T03:43:19;11.50;;;5.50;;
3637;SDS011;1835;50.068;8.154;2023-03-01T03:45:49;14.10;;;7.13;;
3637;SDS011;1835;50.068;8.154;2023-03-01T03:48:18;12.87;;;6.40;;
3637;SDS011;1835;50.068;8.154;2023-03-01T03:50:49;14.50;;;6.73;;
3637;SDS011;1835;50.068;8.154;2023-03-01T03:53:19;14.97;;;7.17;;
3637;SDS011;1835;50.068;8.154;2023-03-01T03:55:50;11.03;;;6.70;;
3637;SDS011;1835;50.068;8.154;2023-03-01T03:58:18;14.87;;;7.00;;
3637;SDS011;1835;50.068;8.154;2023-03-01T04:00:49;24.33;;;8.73;;
3637;SDS011;1835;50.068;8.154;2023-03-01T04:03:20;10.63;;;5.93;;
3637;SDS011;1835;50.068;8.154;2023-03-01T04:05:50;16.20;;;6.60;;
3637;SDS011;1835;50.068;8.154;2023-03-01T04:08:18;14.80;;;8.00;;
3637;SDS011;1835;50.068;8.154;2023-03-01T04:10:49;11.90;;;5.67;;
3637;SDS011;1835;50.068;8.154;2023-03-01T04:13:19;11.30;;;6.57;;
3637;SDS011;1835;50.068;8.154;2023-03-01T04:15:49;9.23;;;5.93;;
3637;SDS011;1835;50.068;8.154;2023-03-01T04:18:18;11.07;;;5.50;;
3637;SDS011;1835;50.068;8.154;2023-03-01T04:20:50;13.27;;;6.07;;
3637;SDS011;1835;50.068;8.154;2023-03-01T04:23:21;13.10;;;6.50;;
3637;SDS011;1835;50.068;8.154;2023-03-01T04:25:51;17.63;;;8.37;;
3637;SDS011;1835;50.068;8.154;2023-03-01T04:28:21;12.53;;;7.63;;
3637;SDS011;1835;50.068;8.154;2023-03-01T04:30:51;10.83;;;6.67;;
3637;SDS011;1835;50.068;8.154;2023-03-01T04:33:19;14.23;;;6.87;;
3637;SDS011;1835;50.068;8.154;2023-03-01T04:35:48;10.90;;;5.90;;
3637;SDS011;1835;50.068;8.154;2023-03-01T04:38:19;12.13;;;7.40;;
3637;SDS011;1835;50.068;8.154;2023-03-01T04:40:48;16.73;;;6.33;;
3637;SDS011;1835;50.068;8.154;2023-03-01T04:43:16;12.83;;;7.40;;
3637;SDS011;1835;50.068;8.154;2023-03-01T04:45:44;13.93;;;7.20;;
3637;SDS011;1835;50.068;8.154;2023-03-01T04:48:12;18.37;;;8.40;;
3637;SDS011;1835;50.068;8.154;2023-03-01T04:50:40;16.67;;;7.77;;
3637;SDS011;1835;50.068;8.154;2023-03-01T04:53:08;11.53;;;6.93;;
3637;SDS011;1835;50.068;8.154;2023-03-01T04:55:37;11.80;;;7.60;;
3637;SDS011;1835;50.068;8.154;2023-03-01T04:58:05;15.43;;;7.47;;
3637;SDS011;1835;50.068;8.154;2023-03-01T05:00:33;14.67;;;7.90;;
3637;SDS011;1835;50.068;8.154;2023-03-01T05:03:01;15.93;;;6.57;;
3637;SDS011;1835;50.068;8.154;2023-03-01T05:05:30;14.50;;;7.73;;
3637;SDS011;1835;50.068;8.154;2023-03-01T05:08:03;17.00;;;8.60;;
3637;SDS011;1835;50.068;8.154;2023-03-01T05:10:34;15.70;;;7.60;;
3637;SDS011;1835;50.068;8.154;2023-03-01T05:13:06;14.83;;;8.20;;
3637;SDS011;1835;50.068;8.154;2023-03-01T05:15:34;19.20;;;8.40;;
3637;SDS011;1835;50.068;8.154;2023-03-01T05:18:03;14.50;;;7.30;;
3637;SDS011;1835;50.068;8.154;2023-03-01T05:20:37;13.80;;;7.90;;
3637;SDS011;1835;50.068;8.154;2023-03-01T05:23:05;19.50;;;8.20;;
3637;SDS011;1835;50.068;8.154;2023-03-01T05:25:33;14.30;;;6.97;;
3637;SDS011;1835;50.068;8.154;2023-03-01T05:28:08;26.30;;;8.67;;
3637;SDS011;1835;50.068;8.154;2023-03-01T05:30:39;15.10;;;7.83;;
3637;SDS011;1835;50.068;8.154;2023-03-01T05:33:07;10.60;;;6.50;;
3637;SDS011;1835;50.068;8.154;2023-03-01T05:35:40;13.60;;;7.00;;
3637;SDS011;1835;50.068;8.154;2023-03-01T05:38:09;12.47;;;7.57;;
3637;SDS011;1835;50.068;8.154;2023-03-01T05:40:39;13.20;;;7.40;;
3637;SDS011;1835;50.068;8.154;2023-03-01T05:43:09;14.87;;;7.73;;
3637;SDS011;1835;50.068;8.154;2023-03-01T05:45:38;14.47;;;7.73;;
3637;SDS011;1835;50.068;8.154;2023-03-01T05:48:09;13.37;;;8.00;;
3637;SDS011;1835;50.068;8.154;2023-03-01T05:50:39;17.53;;;7.07;;
3637;SDS011;1835;50.068;8.154;2023-03-01T05:53:10;18.00;;;7.87;;
3637;SDS011;1835;50.068;8.154;2023-03-01T05:55:39;19.10;;;8.73;;
3637;SDS011;1835;50.068;8.154;2023-03-01T05:58:11;14.27;;;7.57;;
3637;SDS011;1835;50.068;8.154;2023-03-01T06:00:42;16.33;;;7.13;;
3637;SDS011;1835;50.068;8.154;2023-03-01T06:03:13;19.00;;;8.40;;
3637;SDS011;1835;50.068;8.154;2023-03-01T06:05:42;14.43;;;7.07;;
3637;SDS011;1835;50.068;8.154;2023-03-01T06:08:11;16.03;;;7.90;;
3637;SDS011;1835;50.068;8.154;2023-03-01T06:10:40;11.27;;;6.63;;
3637;SDS011;1835;50.068;8.154;2023-03-01T06:13:10;14.93;;;7.60;;
3637;SDS011;1835;50.068;8.154;2023-03-01T06:15:38;22.97;;;7.70;;
3637;SDS011;1835;50.068;8.154;2023-03-01T06:18:06;16.83;;;7.23;;
3637;SDS011;1835;50.068;8.154;2023-03-01T06:20:34;14.30;;;6.83;;
3637;SDS011;1835;50.068;8.154;2023-03-01T06:23:02;14.37;;;6.27;;
3637;SDS011;1835;50.068;8.154;2023-03-01T06:25:30;17.23;;;7.57;;
3637;SDS011;1835;50.068;8.154;2023-03-01T06:27:58;13.57;;;7.53;;
3637;SDS011;1835;50.068;8.154;2023-03-01T06:30:29;15.97;;;6.60;;
3637;SDS011;1835;50.068;8.154;2023-03-01T06:32:57;14.83;;;8.37;;
3637;SDS011;1835;50.068;8.154;2023-03-01T06:35:30;13.77;;;7.53;;
3637;SDS011;1835;50.068;8.154;2023-03-01T06:37:59;16.77;;;6.77;;
3637;SDS011;1835;50.068;8.154;2023-03-01T06:40:29;12.60;;;7.70;;
3637;SDS011;1835;50.068;8.154;2023-03-01T06:42:58;17.70;;;7.90;;
3637;SDS011;1835;50.068;8.154;2023-03-01T06:45:27;15.90;;;7.67;;
3637;SDS011;1835;50.068;8.154;2023-03-01T06:48:02;16.33;;;7.57;;
3637;SDS011;1835;50.068;8.154;2023-03-01T06:50:31;13.50;;;8.03;;
3637;SDS011;1835;50.068;8.154;2023-03-01T06:53:00;15.00;;;8.13;;
3637;SDS011;1835;50.068;8.154;2023-03-01T06:55:29;16.80;;;7.53;;
3637;SDS011;1835;50.068;8.154;2023-03-01T06:57:58;31.23;;;8.07;;
3637;SDS011;1835;50.068;8.154;2023-03-01T07:00:29;16.40;;;7.63;;
3637;SDS011;1835;50.068;8.154;2023-03-01T07:02:59;14.53;;;7.07;;
3637;SDS011;1835;50.068;8.154;2023-03-01T07:05:28;17.20;;;8.17;;
3637;SDS011;1835;50.068;8.154;2023-03-01T07:07:57;26.30;;;8.60;;
3637;SDS011;1835;50.068;8.154;2023-03-01T07:10:25;13.77;;;7.87;;
3637;SDS011;1835;50.068;8.154;2023-03-01T07:12:56;10.63;;;6.77;;
3637;SDS011;1835;50.068;8.154;2023-03-01T07:15:25;16.37;;;8.17;;
3637;SDS011;1835;50.068;8.154;2023-03-01T07:17:56;14.23;;;7.03;;
3637;SDS011;1835;50.068;8.154;2023-03-01T07:20:24;18.73;;;7.90;;
3637;SDS011;1835;50.068;8.154;2023-03-01T07:22:53;13.70;;;6.60;;
3637;SDS011;1835;50.068;8.154;2023-03-01T07:25:22;12.53;;;6.30;;
3637;SDS011;1835;50.068;8.154;2023-03-01T07:27:50;17.40;;;8.27;;
3637;SDS011;1835;50.068;8.154;2023-03-01T07:30:19;16.47;;;7.87;;
3637;SDS011;1835;50.068;8.154;2023-03-01T07:32:48;18.83;;;7.60;;
3637;SDS011;1835;50.068;8.154;2023-03-01T07:35:19;11.10;;;6.77;;
3637;SDS011;1835;50.068;8.154;2023-03-01T07:37:47;17.23;;;7.73;;
3637;SDS011;1835;50.068;8.154;2023-03-01T07:40:15;18.50;;;7.70;;
3637;SDS011;1835;50.068;8.154;2023-03-01T07:42:44;12.97;;;7.50;;
3637;SDS011;1835;50.068;8.154;2023-03-01T07:45:12;16.37;;;8.70;;
3637;SDS011;1835;50.068;8.154;2023-03-01T07:47:40;25.60;;;7.33;;
3637;SDS011;1835;50.068;8.154;2023-03-01T07:50:09;13.90;;;8.27;;
3637;SDS011;1835;50.068;8.154;2023-03-01T07:52:39;11.30;;;7.03;;
3637;SDS011;1835;50.068;8.154;2023-03-01T07:55:07;16.27;;;8.37;;
3637;SDS011;1835;50.068;8.154;2023-03-01T07:57:36;16.80;;;7.30;;
3637;SDS011;1835;50.068;8.154;2023-03-01T08:00:04;12.63;;;6.80;;
3637;SDS011;1835;50.068;8.154;2023-03-01T08:02:35;13.00;;;6.17;;
3637;SDS011;1835;50.068;8.154;2023-03-01T08:05:04;16.07;;;7.03;;
3637;SDS011;1835;50.068;8.154;2023-03-01T08:07:32;12.90;;;6.27;;
3637;SDS011;1835;50.068;8.154;2023-03-01T08:10:02;10.10;;;6.40;;
3637;SDS011;1835;50.068;8.154;2023-03-01T08:12:31;11.80;;;6.80;;
3637;SDS011;1835;50.068;8.154;2023-03-01T08:14:59;23.70;;;8.00;;
3637;SDS011;1835;50.068;8.154;2023-03-01T08:17:27;13.17;;;7.50;;
3637;SDS011;1835;50.068;8.154;2023-03-01T08:19:55;15.93;;;8.30;;
3637;SDS011;1835;50.068;8.154;2023-03-01T08:22:23;10.67;;;6.57;;
3637;SDS011;1835;50.068;8.154;2023-03-01T08:24:51;20.40;;;8.40;;
3637;SDS011;1835;50.068;8.154;2023-03-01T08:27:23;14.30;;;7.37;;
3637;SDS011;1835;50.068;8.154;2023-03-01T08:29:51;13.33;;;7.33;;
3637;SDS011;1835;50.068;8.154;2023-03-01T08:32:19;14.20;;;7.40;;
3637;SDS011;1835;50.068;8.154;2023-03-01T08:34:47;18.00;;;6.87;;
3637;SDS011;1835;50.068;8.154;2023-03-01T08:37:15;12.23;;;6.83;;
3637;SDS011;1835;50.068;8.154;2023-03-01T08:39:43;14.70;;;7.67;;
3637;SDS011;1835;50.068;8.154;2023-03-01T08:42:11;12.13;;;7.23;;
3637;SDS011;1835;50.068;8.154;2023-03-01T08:44:41;13.30;;;6.70;;
3637;SDS011;1835;50.068;8.154;2023-03-01T08:47:12;18.47;;;7.77;;
3637;SDS011;1835;50.068;8.154;2023-03-01T08:49:40;16.13;;;7.83;;
3637;SDS011;1835;50.068;8.154;2023-03-01T08:52:08;16.47;;;7.43;;
3637;SDS011;1835;50.068;8.154;2023-03-01T08:54:36;14.93;;;7.90;;
3637;SDS011;1835;50.068;8.154;2023-03-01T08:57:04;15.23;;;7.80;;
3637;SDS011;1835;50.068;8.154;2023-03-01T08:59:32;12.60;;;7.70;;
3637;SDS011;1835;50.068;8.154;2023-03-01T09:02:05;17.63;;;8.77;;
3637;SDS011;1835;50.068;8.154;2023-03-01T09:04:38;14.87;;;7.80;;
3637;SDS011;1835;50.068;8.154;2023-03-01T09:07:07;15.10;;;7.40;;
3637;SDS011;1835;50.068;8.154;2023-03-01T09:09:36;25.20;;;8.13;;
3637;SDS011;1835;50.068;8.154;2023-03-01T09:12:05;11.90;;;7.10;;
3637;SDS011;1835;50.068;8.154;2023-03-01T09:14:34;14.70;;;9.07;;
3637;SDS011;1835;50.068;8.154;2023-03-01T09:17:05;13.67;;;8.30;;
3637;SDS011;1835;50.068;8.154;2023-03-01T09:19:33;19.27;;;8.40;;
3637;SDS011;1835;50.068;8.154;2023-03-01T09:22:02;14.43;;;8.57;;
3637;SDS011;1835;50.068;8.154;2023-03-01T09:24:31;14.17;;;7.60;;
3637;SDS011;1835;50.068;8.154;2023-03-01T09:26:59;18.60;;;7.80;;
3637;SDS011;1835;50.068;8.154;2023-03-01T09:29:27;18.90;;;9.10;;
3637;SDS011;1835;50.068;8.154;2023-03-01T09:31:55;14.63;;;8.23;;
3637;SDS011;1835;50.068;8.154;2023-03-01T09:34:25;14.33;;;8.60;;
3637;SDS011;1835;50.068;8.154;2023-03-01T09:36:53;15.60;;;8.20;;
3637;SDS011;1835;50.068;8.154;2023-03-01T09:39:21;16.53;;;8.33;;
3637;SDS011;1835;50.068;8.154;2023-03-01T09:41:58;19.97;;;8.67;;
3637;SDS011;1835;50.068;8.154;2023-03-01T09:44:30;17.73;;;8.50;;
3637;SDS011;1835;50.068;8.154;2023-03-01T09:47:05;14.63;;;8.63;;
3637;SDS011;1835;50.068;8.154;2023-03-01T09:49:43;16.70;;;9.13;;
3637;SDS011;1835;50.068;8.154;2023-03-01T09:52:21;16.83;;;9.20;;
3637;SDS011;1835;50.068;8.154;2023-03-01T09:54:57;17.10;;;9.07;;
3637;SDS011;1835;50.068;8.154;2023-03-01T09:57:28;19.57;;;9.80;;
3637;SDS011;1835;50.068;8.154;2023-03-01T10:00:10;17.77;;;8.73;;
3637;SDS011;1835;50.068;8.154;2023-03-01T10:02:56;14.07;;;8.33;;
3637;SDS011;1835;50.068;8.154;2023-03-01T10:05:36;15.50;;;9.17;;
3637;SDS011;1835;50.068;8.154;2023-03-01T10:08:29;20.43;;;8.67;;
3637;SDS011;1835;50.068;8.154;2023-03-01T10:11:04;14.60;;;8.43;;
3637;SDS011;1835;50.068;8.154;2023-03-01T10:13:47;14.17;;;8.60;;
3637;SDS011;1835;50.068;8.154;2023-03-01T10:16:22;17.10;;;8.70;;
3637;SDS011;1835;50.068;8.154;2023-03-01T10:18:57;18.13;;;9.83;;
3637;SDS011;1835;50.068;8.154;2023-03-01T10:21:30;17.87;;;10.23;;
3637;SDS011;1835;50.068;8.154;2023-03-01T10:24:08;17.70;;;9.70;;
3637;SDS011;1835;50.068;8.154;2023-03-01T10:26:43;16.23;;;9.60;;
3637;SDS011;1835;50.068;8.154;2023-03-01T10:29:17;17.60;;;9.03;;
3637;SDS011;1835;50.068;8.154;2023-03-01T10:31:52;18.57;;;8.60;;
3637;SDS011;1835;50.068;8.154;2023-03-01T10:34:25;20.50;;;10.00;;
3637;SDS011;1835;50.068;8.154;2023-03-01T10:36:59;15.57;;;8.50;;
3637;SDS011;1835;50.068;8.154;2023-03-01T10:39:36;16.53;;;8.93;;
3637;SDS011;1835;50.068;8.154;2023-03-01T10:42:25;19.83;;;10.07;;
3637;SDS011;1835;50.068;8.154;2023-03-01T10:44:56;17.77;;;8.10;;
3637;SDS011;1835;50.068;8.154;2023-03-01T10:47:26;17.73;;;8.60;;
3637;SDS011;1835;50.068;8.154;2023-03-01T10:49:56;11.70;;;8.00;;
3637;SDS011;1835;50.068;8.154;2023-03-01T10:52:32;12.40;;;7.50;;
3637;SDS011;1835;50.068;8.154;2023-03-01T10:55:03;17.53;;;9.53;;
3637;SDS011;1835;50.068;8.154;2023-03-01T10:57:55;15.20;;;8.40;;
3637;SDS011;1835;50.068;8.154;2023-03-01T11:00:45;16.03;;;9.37;;
3637;SDS011;1835;50.068;8.154;2023-03-01T11:03:18;14.93;;;8.73;;
3637;SDS011;1835;50.068;8.154;2023-03-01T11:05:50;15.57;;;8.77;;
3637;SDS011;1835;50.068;8.154;2023-03-01T11:08:34;17.37;;;9.63;;
3637;SDS011;1835;50.068;8.154;2023-03-01T11:11:19;15.20;;;7.40;;
3637;SDS011;1835;50.068;8.154;2023-03-01T11:13:58;16.47;;;7.80;;
3637;SDS011;1835;50.068;8.154;2023-03-01T11:16:41;14.07;;;8.03;;
3637;SDS011;1835;50.068;8.154;2023-03-01T11:19:17;16.17;;;8.30;;
3637;SDS011;1835;50.068;8.154;2023-03-01T11:21:52;14.63;;;8.70;;
3637;SDS011;1835;50.068;8.154;2023-03-01T11:24:31;13.27;;;8.40;;
3637;SDS011;1835;50.068;8.154;2023-03-01T11:27:15;13.60;;;8.10;;
3637;SDS011;1835;50.068;8.154;2023-03-01T11:29:46;11.30;;;6.67;;
3637;SDS011;1835;50.068;8.154;2023-03-01T11:32:20;11.57;;;7.70;;
3637;SDS011;1835;50.068;8.154;2023-03-01T11:34:54;14.07;;;7.83;;
3637;SDS011;1835;50.068;8.154;2023-03-01T11:37:30;12.80;;;7.73;;
3637;SDS011;1835;50.068;8.154;2023-03-01T11:40:10;12.20;;;7.30;;
3637;SDS011;1835;50.068;8.154;2023-03-01T11:42:44;12.67;;;6.73;;
3637;SDS011;1835;50.068;8.154;2023-03-01T11:45:28;17.23;;;6.90;;
3637;SDS011;1835;50.068;8.154;2023-03-01T11:48:19;9.10;;;6.00;;
3637;SDS011;1835;50.068;8.154;2023-03-01T11:51:17;11.60;;;6.37;;
3637;SDS011;1835;50.068;8.154;2023-03-01T11:54:01;10.80;;;7.10;;
3637;SDS011;1835;50.068;8.154;2023-03-01T11:56:43;19.63;;;6.53;;
3637;SDS011;1835;50.068;8.154;2023-03-01T11:59:34;18.30;;;8.70;;
3637;SDS011;1835;50.068;8.154;2023-03-01T12:02:42;17.80;;;9.57;;
3637;SDS011;1835;50.068;8.154;2023-03-01T12:05:50;16.70;;;8.03;;
3637;SDS011;1835;50.068;8.154;2023-03-01T12:08:33;11.70;;;7.70;;
3637;SDS011;1835;50.068;8.154;2023-03-01T12:11:10;23.27;;;11.47;;
3637;SDS011;1835;50.068;8.154;2023-03-01T12:13:58;16.07;;;8.47;;
3637;SDS011;1835;50.068;8.154;2023-03-01T12:17:00;18.53;;;7.73;;
3637;SDS011;1835;50.068;8.154;2023-03-01T12:19:59;13.00;;;7.97;;
3637;SDS011;1835;50.068;8.154;2023-03-01T12:22:44;12.33;;;6.47;;
3637;SDS011;1835;50.068;8.154;2023-03-01T12:25:45;9.20;;;6.00;;
3637;SDS011;1835;50.068;8.154;2023-03-01T12:28:24;14.30;;;6.70;;
3637;SDS011;1835;50.068;8.154;2023-03-01T12:31:31;9.37;;;6.13;;
3637;SDS011;1835;50.068;8.154;2023-03-01T12:34:18;13.30;;;6.53;;
3637;SDS011;1835;50.068;8.154;2023-03-01T12:37:11;12.37;;;6.80;;
3637;SDS011;1835;50.068;8.154;2023-03-01T12:39:59;13.23;;;7.20;;
3637;SDS011;1835;50.068;8.154;2023-03-01T12:42:53;14.60;;;6.60;;
3637;SDS011;1835;50.068;8.154;2023-03-01T12:45:48;14.23;;;7.10;;
3637;SDS011;1835;50.068;8.154;2023-03-01T12:48:36;8.17;;;5.40;;
3637;SDS011;1835;50.068;8.154;2023-03-01T12:51:15;12.17;;;5.50;;
3637;SDS011;1835;50.068;8.154;2023-03-01T12:53:48;11.77;;;6.60;;
3637;SDS011;1835;50.068;8.154;2023-03-01T12:56:18;9.10;;;4.90;;
3637;SDS011;1835;50.068;8.154;2023-03-01T12:58:51;13.63;;;7.10;;
3637;SDS011;1835;50.068;8.154;2023-03-01T13:01:34;8.70;;;5.67;;
3637;SDS011;1835;50.068;8.154;2023-03-01T13:04:15;10.00;;;6.90;;
3637;SDS011;1835;50.068;8.154;2023-03-01T13:07:00;8.07;;;4.90;;
3637;SDS011;1835;50.068;8.154;2023-03-01T13:09:48;7.77;;;5.23;;
3637;SDS011;1835;50.068;8.154;2023-03-01T13:12:44;10.30;;;6.10;;
3637;SDS011;1835;50.068;8.154;2023-03-01T13:15:31;9.60;;;6.27;;
3637;SDS011;1835;50.068;8.154;2023-03-01T13:18:04;6.30;;;5.40;;
3637;SDS011;1835;50.068;8.154;2023-03-01T13:20:56;11.00;;;5.00;;
3637;SDS011;1835;50.068;8.154;2023-03-01T13:23:31;9.80;;;5.03;;
3637;SDS011;1835;50.068;8.154;2023-03-01T13:26:07;8.93;;;5.33;;
3637;SDS011;1835;50.068;8.154;2023-03-01T13:28:50;15.00;;;6.50;;
3637;SDS011;1835;50.068;8.154;2023-03-01T13:34:41;11.73;;;5.50;;
3637;SDS011;1835;50.068;8.154;2023-03-01T13:37:35;14.23;;;7.60;;
3637;SDS011;1835;50.068;8.154;2023-03-01T13:40:08;12.23;;;5.70;;
3637;SDS011;1835;50.068;8.154;2023-03-01T13:43:30;11.03;;;5.87;;
3637;SDS011;1835;50.068;8.154;2023-03-01T13:46:00;14.43;;;7.37;;
3637;SDS011;1835;50.068;8.154;2023-03-01T13:48:35;11.87;;;6.10;;
3637;SDS011;1835;50.068;8.154;2023-03-01T13:51:06;10.63;;;5.90;;
3637;SDS011;1835;50.068;8.154;2023-03-01T13:53:38;10.50;;;6.10;;
3637;SDS011;1835;50.068;8.154;2023-03-01T13:56:12;8.03;;;5.17;;
3637;SDS011;1835;50.068;8.154;2023-03-01T13:58:45;13.33;;;4.83;;
3637;SDS011;1835;50.068;8.154;2023-03-01T14:01:21;11.43;;;6.17;;
3637;SDS011;1835;50.068;8.154;2023-03-01T14:03:58;17.70;;;5.70;;
3637;SDS011;1835;50.068;8.154;2023-03-01T14:06:28;9.07;;;5.40;;
3637;SDS011;1835;50.068;8.154;2023-03-01T14:09:02;10.27;;;6.60;;
3637;SDS011;1835;50.068;8.154;2023-03-01T14:11:37;6.90;;;5.10;;
3637;SDS011;1835;50.068;8.154;2023-03-01T14:14:41;9.50;;;4.23;;
3637;SDS011;1835;50.068;8.154;2023-03-01T14:17:24;12.37;;;6.10;;
3637;SDS011;1835;50.068;8.154;2023-03-01T14:20:19;11.00;;;5.43;;
3637;SDS011;1835;50.068;8.154;2023-03-01T14:22:49;13.87;;;5.47;;
3637;SDS011;1835;50.068;8.154;2023-03-01T14:25:21;12.50;;;5.93;;
3637;SDS011;1835;50.068;8.154;2023-03-01T14:27:56;8.53;;;5.20;;
3637;SDS011;1835;50.068;8.154;2023-03-01T14:30:32;15.20;;;5.17;;
3637;SDS011;1835;50.068;8.154;2023-03-01T14:33:05;7.83;;;5.40;;
3637;SDS011;1835;50.068;8.154;2023-03-01T14:35:52;8.50;;;4.70;;
3637;SDS011;1835;50.068;8.154;2023-03-01T14:38:27;9.63;;;5.70;;
3637;SDS011;1835;50.068;8.154;2023-03-01T14:41:01;7.50;;;4.87;;
3637;SDS011;1835;50.068;8.154;2023-03-01T14:43:34;7.70;;;5.70;;
3637;SDS011;1835;50.068;8.154;2023-03-01T14:46:04;15.07;;;6.30;;
3637;SDS011;1835;50.068;8.154;2023-03-01T14:48:32;10.23;;;5.50;;
3637;SDS011;1835;50.068;8.154;2023-03-01T14:51:00;12.80;;;6.13;;
3637;SDS011;1835;50.068;8.154;2023-03-01T14:53:32;9.77;;;5.47;;
3637;SDS011;1835;50.068;8.154;2023-03-01T14:56:16;9.73;;;4.60;;
3637;SDS011;1835;50.068;8.154;2023-03-01T14:58:46;11.97;;;6.13;;
3637;SDS011;1835;50.068;8.154;2023-03-01T15:01:19;8.60;;;4.50;;
3637;SDS011;1835;50.068;8.154;2023-03-01T15:03:49;10.90;;;5.10;;
3637;SDS011;1835;50.068;8.154;2023-03-01T15:06:19;9.77;;;4.90;;
3637;SDS011;1835;50.068;8.154;2023-03-01T15:08:52;10.10;;;5.23;;
3637;SDS011;1835;50.068;8.154;2023-03-01T15:11:23;9.70;;;5.70;;
3637;SDS011;1835;50.068;8.154;2023-03-01T15:13:57;12.43;;;6.00;;
3637;SDS011;1835;50.068;8.154;2023-03-01T15:16:26;11.53;;;6.37;;
3637;SDS011;1835;50.068;8.154;2023-03-01T15:18:57;11.10;;;6.33;;
3637;SDS011;1835;50.068;8.154;2023-03-01T15:21:29;7.23;;;5.33;;
3637;SDS011;1835;50.068;8.154;2023-03-01T15:24:03;7.60;;;4.53;;
3637;SDS011;1835;50.068;8.154;2023-03-01T15:26:47;10.50;;;5.60;;
3637;SDS011;1835;50.068;8.154;2023-03-01T15:29:23;11.33;;;6.60;;
3637;SDS011;1835;50.068;8.154;2023-03-01T15:31:56;14.50;;;6.00;;
3637;SDS011;1835;50.068;8.154;2023-03-01T15:34:27;17.40;;;6.13;;
3637;SDS011;1835;50.068;8.154;2023-03-01T15:36:59;16.23;;;5.63;;
3637;SDS011;1835;50.068;8.154;2023-03-01T15:39:33;13.70;;;6.30;;
3637;SDS011;1835;50.068;8.154;2023-03-01T15:42:05;11.83;;;5.47;;
3637;SDS011;1835;50.068;8.154;2023-03-01T15:44:38;10.40;;;5.90;;
3637;SDS011;1835;50.068;8.154;2023-03-01T15:47:24;10.57;;;6.50;;